Time;durP1;ratioP1;P1;durP2;ratioP2;P2;SDS_P1;SDS_P2;PMS_P1;PMS_P2;Temp;Humidity;BMP_temperature;BMP_pressure;BME280_temperature;BME280_humidity;BME280_pressure;Samples;Min_cycle;Max_cycle;Signal;HPM_P1;HPM_P2
2023/08/31 00:01:10;;;;;;;7.35;2.95;;;;;;;;;;5071255;28;20044;-67
2023/08/31 00:03:36;;;;;;;8.38;2.47;;;;;;;;;;5070225;28;20386;-67
2023/08/31 00:06:03;;;;;;;7.28;2.50;;;;;;;;;;5071377;28;20143;-67
2023/08/31 00:08:30;;;;;;;6.55;2.65;;;;;;;;;;5070112;28;20075;-67
2023/08/31 00:11:00;;;;;;;7.55;2.92;;;;;;;;;;5071905;28;20508;-67
2023/08/31 00:13:26;;;;;;;8.52;2.70;;;;;;;;;;5071889;28;20055;-67
2023/08/31 00:15:55;;;;;;;7.28;2.80;;;;;;;;;;5071311;28;20040;-67
2023/08/31 00:18:21;;;;;;;11.52;2.83;;;;;;;;;;5072121;28;20471;-67
2023/08/31 00:20:47;;;;;;;7.20;2.55;;;;;;;;;;5071709;28;20044;-67
2023/08/31 00:23:13;;;;;;;3.35;1.90;;;;;;;;;;5075451;28;20063;-67
2023/08/31 00:25:39;;;;;;;5.95;2.35;;;;;;;;;;5081999;28;20071;-67
2023/08/31 00:28:05;;;;;;;8.45;2.55;;;;;;;;;;5096445;28;20529;-67
2023/08/31 00:30:32;;;;;;;5.93;2.20;;;;;;;;;;5095166;28;20040;-67
2023/08/31 00:33:01;;;;;;;6.18;2.28;;;;;;;;;;5095933;28;20047;-67
2023/08/31 00:35:27;;;;;;;6.63;2.50;;;;;;;;;;5094478;28;20097;-67
2023/08/31 00:37:58;;;;;;;8.68;2.75;;;;;;;;;;5095257;28;20380;-67
2023/08/31 00:40:24;;;;;;;6.57;1.98;;;;;;;;;;5095617;28;20499;-67
2023/08/31 00:42:51;;;;;;;7.10;2.20;;;;;;;;;;5095380;28;20035;-67
2023/08/31 00:45:18;;;;;;;5.72;1.80;;;;;;;;;;5094702;28;20044;-67
2023/08/31 00:47:44;;;;;;;5.63;2.08;;;;;;;;;;5095766;28;20035;-67
2023/08/31 00:50:10;;;;;;;4.47;2.35;;;;;;;;;;5082271;28;20040;-67
2023/08/31 00:52:37;;;;;;;6.80;2.00;;;;;;;;;;5074331;28;20053;-67
2023/08/31 00:55:07;;;;;;;6.38;1.95;;;;;;;;;;5074813;28;20032;-67
2023/08/31 00:57:33;;;;;;;3.88;1.83;;;;;;;;;;5073631;28;20098;-67
2023/08/31 00:59:59;;;;;;;5.43;1.67;;;;;;;;;;5074661;28;20464;-67
2023/08/31 01:02:33;;;;;;;4.40;1.23;;;;;;;;;;5075078;28;20519;-67
2023/08/31 01:05:05;;;;;;;5.53;1.40;;;;;;;;;;5074502;28;20380;-67
2023/08/31 01:07:35;;;;;;;5.07;1.40;;;;;;;;;;5073151;28;20044;-67
2023/08/31 01:10:21;;;;;;;4.30;1.48;;;;;;;;;;5074324;28;20037;-67
2023/08/31 01:12:51;;;;;;;5.25;2.08;;;;;;;;;;5074176;28;20049;-67
2023/08/31 01:15:18;;;;;;;5.97;1.50;;;;;;;;;;5073187;28;20130;-67
2023/08/31 01:17:55;;;;;;;2.58;1.05;;;;;;;;;;5074359;28;20260;-67
2023/08/31 01:20:32;;;;;;;5.05;1.10;;;;;;;;;;5074014;28;20479;-67
2023/08/31 01:22:58;;;;;;;3.33;1.63;;;;;;;;;;5073188;28;20040;-67
2023/08/31 01:25:24;;;;;;;3.22;1.30;;;;;;;;;;5077818;28;20374;-67
2023/08/31 01:27:51;;;;;;;4.68;1.05;;;;;;;;;;5094338;28;20142;-67
2023/08/31 01:30:17;;;;;;;2.88;1.00;;;;;;;;;;5093913;28;20521;-67
2023/08/31 01:32:47;;;;;;;2.90;1.17;;;;;;;;;;5093982;28;20413;-67
2023/08/31 01:35:16;;;;;;;3.30;1.15;;;;;;;;;;5093181;28;20044;-67
2023/08/31 01:37:57;;;;;;;3.83;1.00;;;;;;;;;;5094656;28;20051;-67
2023/08/31 01:40:25;;;;;;;5.78;1.23;;;;;;;;;;5092584;28;20036;-67
2023/08/31 01:42:52;;;;;;;5.15;1.50;;;;;;;;;;5093584;28;20071;-67
2023/08/31 01:45:21;;;;;;;3.58;1.50;;;;;;;;;;5094072;28;20089;-67
2023/08/31 01:47:47;;;;;;;2.78;1.80;;;;;;;;;;5094198;28;20479;-67
2023/08/31 01:50:13;;;;;;;5.50;2.00;;;;;;;;;;5080152;28;20510;-67
2023/08/31 01:52:39;;;;;;;3.67;1.98;;;;;;;;;;5073967;28;20044;-67
2023/08/31 01:55:06;;;;;;;3.45;1.92;;;;;;;;;;5073803;28;20082;-67
2023/08/31 01:57:33;;;;;;;6.05;2.50;;;;;;;;;;5072175;28;20044;-67
2023/08/31 01:59:59;;;;;;;6.05;2.40;;;;;;;;;;5073763;28;20044;-67
2023/08/31 02:02:25;;;;;;;7.22;2.80;;;;;;;;;;5073505;28;20659;-67
2023/08/31 02:04:51;;;;;;;6.28;2.90;;;;;;;;;;5072983;28;20041;-67
2023/08/31 02:07:18;;;;;;;9.13;2.88;;;;;;;;;;5073662;28;20388;-67
2023/08/31 02:09:44;;;;;;;6.65;3.42;;;;;;;;;;5072493;28;20041;-67
2023/08/31 02:12:10;;;;;;;4.55;3.17;;;;;;;;;;5071354;28;20080;-67
2023/08/31 02:14:36;;;;;;;5.63;2.88;;;;;;;;;;5073565;28;20047;-67
2023/08/31 02:17:03;;;;;;;8.02;3.35;;;;;;;;;;5072306;28;20079;-67
2023/08/31 02:19:29;;;;;;;7.95;3.30;;;;;;;;;;5071630;28;20078;-67
2023/08/31 02:21:55;;;;;;;6.03;3.30;;;;;;;;;;5071785;28;20046;-67
2023/08/31 02:24:21;;;;;;;5.25;3.10;;;;;;;;;;5073248;28;20051;-67
2023/08/31 02:26:49;;;;;;;8.35;3.20;;;;;;;;;;5087743;28;20051;-67
2023/08/31 02:29:15;;;;;;;5.47;3.47;;;;;;;;;;5093035;28;20135;-67
2023/08/31 02:31:41;;;;;;;5.93;3.22;;;;;;;;;;5092808;28;20517;-67
2023/08/31 02:34:07;;;;;;;4.13;2.90;;;;;;;;;;5092665;28;20044;-67
2023/08/31 02:36:33;;;;;;;5.97;3.65;;;;;;;;;;5093148;28;20047;-67
2023/08/31 02:38:59;;;;;;;8.93;3.67;;;;;;;;;;5092854;28;20102;-67
2023/08/31 02:41:26;;;;;;;7.47;3.05;;;;;;;;;;5091043;28;20432;-67
2023/08/31 02:43:52;;;;;;;6.28;3.10;;;;;;;;;;5092708;28;20238;-67
2023/08/31 02:46:18;;;;;;;5.20;2.72;;;;;;;;;;5092494;28;20127;-67
2023/08/31 02:48:44;;;;;;;6.93;2.80;;;;;;;;;;5092438;28;20050;-67
2023/08/31 02:51:11;;;;;;;4.40;2.65;;;;;;;;;;5072285;28;20040;-67
2023/08/31 02:53:37;;;;;;;4.38;2.42;;;;;;;;;;5072369;28;20046;-67
2023/08/31 02:56:03;;;;;;;6.30;2.40;;;;;;;;;;5072550;28;20387;-67
2023/08/31 02:58:29;;;;;;;4.97;2.28;;;;;;;;;;5072198;28;20124;-67
2023/08/31 03:00:55;;;;;;;3.92;2.15;;;;;;;;;;5072179;28;20074;-67
2023/08/31 03:03:21;;;;;;;3.72;2.28;;;;;;;;;;5071125;28;20052;-67
2023/08/31 03:05:48;;;;;;;6.78;2.50;;;;;;;;;;5071835;28;20487;-67
2023/08/31 03:08:14;;;;;;;3.97;2.22;;;;;;;;;;5070930;28;20048;-67
2023/08/31 03:10:41;;;;;;;3.47;2.45;;;;;;;;;;5071055;28;20044;-67
2023/08/31 03:13:07;;;;;;;6.22;2.97;;;;;;;;;;5071902;28;20479;-67
2023/08/31 03:15:34;;;;;;;5.05;2.45;;;;;;;;;;5071072;28;20058;-67
2023/08/31 03:18:00;;;;;;;4.75;2.80;;;;;;;;;;5071863;28;20036;-67
2023/08/31 03:20:26;;;;;;;7.88;3.42;;;;;;;;;;5071825;28;20036;-67
2023/08/31 03:22:52;;;;;;;3.88;2.55;;;;;;;;;;5072132;28;20036;-67
2023/08/31 03:25:18;;;;;;;2.92;2.45;;;;;;;;;;5074656;28;20741;-67
2023/08/31 03:27:44;;;;;;;5.97;2.65;;;;;;;;;;5092122;28;20032;-67
2023/08/31 03:30:10;;;;;;;5.45;3.08;;;;;;;;;;5091809;28;20091;-67
2023/08/31 03:32:36;;;;;;;4.13;3.03;;;;;;;;;;5092458;28;20048;-67
2023/08/31 03:35:07;;;;;;;6.75;3.40;;;;;;;;;;5091988;28;20076;-67
2023/08/31 03:37:33;;;;;;;5.72;3.00;;;;;;;;;;5090975;28;20048;-67
2023/08/31 03:39:59;;;;;;;5.15;3.53;;;;;;;;;;5092087;28;20040;-67
2023/08/31 03:42:25;;;;;;;6.45;3.60;;;;;;;;;;5091539;28;20467;-67
2023/08/31 03:44:51;;;;;;;4.68;3.83;;;;;;;;;;5092032;28;20038;-67
2023/08/31 03:47:17;;;;;;;5.00;3.58;;;;;;;;;;5090737;28;20097;-67
2023/08/31 03:49:43;;;;;;;4.43;3.70;;;;;;;;;;5082764;28;20036;-67
2023/08/31 03:52:09;;;;;;;7.63;3.67;;;;;;;;;;5071400;28;20043;-67
2023/08/31 03:54:35;;;;;;;8.18;4.75;;;;;;;;;;5071617;28;20036;-67
2023/08/31 03:57:02;;;;;;;6.03;4.43;;;;;;;;;;5070532;28;20498;-67
2023/08/31 03:59:28;;;;;;;6.07;4.45;;;;;;;;;;5071608;28;20044;-67
2023/08/31 04:01:54;;;;;;;5.13;4.25;;;;;;;;;;5071406;28;20610;-67
2023/08/31 04:04:20;;;;;;;6.97;4.75;;;;;;;;;;5071136;28;20041;-67
2023/08/31 04:06:46;;;;;;;6.57;4.80;;;;;;;;;;5071601;28;20157;-67
2023/08/31 04:09:12;;;;;;;7.75;5.03;;;;;;;;;;5071287;28;20041;-67
2023/08/31 04:11:38;;;;;;;7.65;4.70;;;;;;;;;;5071067;28;20037;-67
2023/08/31 04:14:04;;;;;;;7.53;5.40;;;;;;;;;;5071529;28;20402;-67
2023/08/31 04:16:30;;;;;;;7.28;6.45;;;;;;;;;;5071751;28;20178;-67
2023/08/31 04:18:56;;;;;;;7.75;5.78;;;;;;;;;;5070777;28;20120;-67
2023/08/31 04:21:22;;;;;;;7.63;5.65;;;;;;;;;;5069838;28;20175;-67
2023/08/31 04:23:48;;;;;;;6.18;4.97;;;;;;;;;;5070993;28;20111;-67
2023/08/31 04:26:14;;;;;;;7.85;5.90;;;;;;;;;;5079756;28;20043;-67
2023/08/31 04:28:44;;;;;;;8.55;5.95;;;;;;;;;;5089961;28;20080;-67
2023/08/31 04:31:10;;;;;;;7.03;6.07;;;;;;;;;;5091179;28;20056;-67
2023/08/31 04:33:37;;;;;;;10.20;6.30;;;;;;;;;;5089770;28;20039;-67
2023/08/31 04:36:04;;;;;;;8.45;6.15;;;;;;;;;;5091282;28;20034;-67
2023/08/31 04:38:31;;;;;;;8.05;5.78;;;;;;;;;;5091470;28;20113;-67
2023/08/31 04:40:59;;;;;;;9.95;6.57;;;;;;;;;;5089450;28;20075;-67
2023/08/31 04:43:25;;;;;;;8.38;5.75;;;;;;;;;;5090919;28;20484;-67
2023/08/31 04:45:55;;;;;;;8.38;5.82;;;;;;;;;;5089786;28;20074;-67
2023/08/31 04:48:21;;;;;;;7.32;5.30;;;;;;;;;;5090752;28;20052;-67
2023/08/31 04:50:47;;;;;;;9.75;5.60;;;;;;;;;;5073480;28;20045;-67
2023/08/31 04:53:13;;;;;;;7.22;5.25;;;;;;;;;;5070909;28;20080;-67
2023/08/31 04:55:39;;;;;;;7.45;5.25;;;;;;;;;;5069127;28;20099;-67
2023/08/31 04:58:05;;;;;;;6.25;5.30;;;;;;;;;;5069773;28;20047;-67
2023/08/31 05:00:32;;;;;;;8.30;4.78;;;;;;;;;;5070982;28;20044;-67
2023/08/31 05:02:58;;;;;;;5.50;5.00;;;;;;;;;;5070122;28;20043;-67
2023/08/31 05:05:24;;;;;;;11.10;5.38;;;;;;;;;;5069683;28;20040;-67
2023/08/31 05:07:50;;;;;;;7.70;5.07;;;;;;;;;;5070703;28;20047;-67
2023/08/31 05:10:16;;;;;;;7.25;4.80;;;;;;;;;;5074099;28;20037;-67
2023/08/31 05:12:42;;;;;;;7.20;4.53;;;;;;;;;;5074332;28;20051;-67
2023/08/31 05:15:09;;;;;;;6.47;4.85;;;;;;;;;;5073084;28;20068;-67
2023/08/31 05:17:35;;;;;;;7.63;4.70;;;;;;;;;;5073971;28;20059;-67
2023/08/31 05:20:04;;;;;;;8.60;4.90;;;;;;;;;;5074327;28;20398;-67
2023/08/31 05:22:30;;;;;;;8.63;4.60;;;;;;;;;;5074050;28;20048;-67
2023/08/31 05:24:56;;;;;;;7.55;4.13;;;;;;;;;;5072406;28;20044;-67
2023/08/31 05:27:22;;;;;;;6.65;4.25;;;;;;;;;;5094115;28;20059;-67
2023/08/31 05:29:48;;;;;;;9.30;4.72;;;;;;;;;;5094034;28;20399;-67
2023/08/31 05:32:14;;;;;;;6.28;4.30;;;;;;;;;;5093881;28;20694;-68
2023/08/31 05:34:40;;;;;;;6.97;4.75;;;;;;;;;;5093104;28;20036;-68
2023/08/31 05:37:06;;;;;;;6.72;4.05;;;;;;;;;;5094059;28;20044;-68
2023/08/31 05:39:32;;;;;;;8.05;4.10;;;;;;;;;;5094013;28;20089;-68
2023/08/31 05:41:58;;;;;;;6.85;3.90;;;;;;;;;;5092843;28;20409;-68
2023/08/31 05:44:24;;;;;;;7.65;4.32;;;;;;;;;;5094160;28;20386;-68
2023/08/31 05:46:50;;;;;;;9.80;4.30;;;;;;;;;;5093950;28;20040;-68
2023/08/31 05:49:16;;;;;;;6.63;3.85;;;;;;;;;;5088982;28;20086;-68
2023/08/31 05:51:42;;;;;;;8.93;3.72;;;;;;;;;;5073454;28;20411;-68
2023/08/31 05:54:11;;;;;;;9.15;3.50;;;;;;;;;;5073656;28;20040;-68
2023/08/31 05:56:39;;;;;;;10.82;4.00;;;;;;;;;;5072392;28;20093;-68
2023/08/31 05:59:05;;;;;;;9.90;4.07;;;;;;;;;;5073753;28;20421;-68
2023/08/31 06:01:31;;;;;;;6.55;3.40;;;;;;;;;;5071737;28;20048;-68
2023/08/31 06:03:57;;;;;;;7.75;3.78;;;;;;;;;;5072269;28;20463;-68
2023/08/31 06:06:24;;;;;;;6.43;3.53;;;;;;;;;;5073671;28;20531;-68
2023/08/31 06:08:50;;;;;;;7.55;3.53;;;;;;;;;;5073003;28;20089;-68
2023/08/31 06:11:16;;;;;;;9.48;3.63;;;;;;;;;;5072448;28;20040;-68
2023/08/31 06:13:42;;;;;;;8.68;3.60;;;;;;;;;;5073676;28;20048;-68
2023/08/31 06:16:09;;;;;;;9.52;3.63;;;;;;;;;;5072995;28;20491;-68
2023/08/31 06:18:35;;;;;;;7.28;3.33;;;;;;;;;;5073095;28;20045;-68
2023/08/31 06:21:01;;;;;;;7.05;3.17;;;;;;;;;;5072842;28;20040;-68
2023/08/31 06:23:27;;;;;;;9.13;3.40;;;;;;;;;;5071722;28;20685;-68
2023/08/31 06:25:53;;;;;;;8.23;3.17;;;;;;;;;;5080276;28;20051;-68
2023/08/31 06:28:19;;;;;;;8.07;3.45;;;;;;;;;;5093273;28;20139;-68
2023/08/31 06:30:46;;;;;;;7.20;3.20;;;;;;;;;;5093108;28;20155;-68
2023/08/31 06:33:13;;;;;;;7.55;4.00;;;;;;;;;;5091371;28;20044;-68
2023/08/31 06:35:39;;;;;;;5.65;3.70;;;;;;;;;;5093574;28;20489;-68
2023/08/31 06:38:05;;;;;;;7.65;4.22;;;;;;;;;;5091004;28;20040;-68
2023/08/31 06:40:31;;;;;;;14.05;4.88;;;;;;;;;;5090435;28;20042;-62
2023/08/31 06:42:57;;;;;;;10.43;4.68;;;;;;;;;;5092331;28;20070;-61
2023/08/31 06:45:24;;;;;;;9.65;5.40;;;;;;;;;;5091575;28;20036;-63
2023/08/31 06:47:50;;;;;;;13.38;5.30;;;;;;;;;;5092241;28;20071;-61
2023/08/31 06:50:16;;;;;;;9.45;5.10;;;;;;;;;;5091175;28;20055;-62
2023/08/31 06:52:43;;;;;;;6.55;4.60;;;;;;;;;;5091626;28;20036;-62
2023/08/31 06:55:10;;;;;;;9.45;4.97;;;;;;;;;;5091698;28;20043;-62
2023/08/31 06:57:37;;;;;;;7.25;5.00;;;;;;;;;;5091845;28;20051;-62
2023/08/31 07:00:03;;;;;;;9.73;4.80;;;;;;;;;;5091765;28;20064;-62
2023/08/31 07:02:30;;;;;;;10.98;4.60;;;;;;;;;;5091213;28;20427;-62
2023/08/31 07:04:56;;;;;;;8.75;4.32;;;;;;;;;;5091465;28;20040;-63
2023/08/31 07:07:22;;;;;;;8.90;4.38;;;;;;;;;;5091982;28;20066;-63
2023/08/31 07:09:48;;;;;;;8.73;4.10;;;;;;;;;;5090822;28;20040;-63
2023/08/31 07:12:14;;;;;;;5.13;3.55;;;;;;;;;;5091718;28;20044;-62
2023/08/31 07:14:40;;;;;;;6.18;3.70;;;;;;;;;;5091160;28;20040;-63
2023/08/31 07:17:06;;;;;;;8.27;3.50;;;;;;;;;;5091512;28;20249;-63
2023/08/31 07:19:36;;;;;;;6.93;3.58;;;;;;;;;;5090612;28;20071;-63
2023/08/31 07:22:03;;;;;;;6.95;3.35;;;;;;;;;;5090455;28;20036;-63
2023/08/31 07:24:30;;;;;;;13.13;4.20;;;;;;;;;;5091499;28;20044;-62
2023/08/31 07:26:56;;;;;;;9.75;3.70;;;;;;;;;;5089951;28;20051;-62
2023/08/31 07:29:22;;;;;;;8.10;3.03;;;;;;;;;;5091504;28;20052;-62
2023/08/31 07:31:48;;;;;;;7.15;3.40;;;;;;;;;;5089743;28;20062;-61
2023/08/31 07:34:14;;;;;;;7.30;3.28;;;;;;;;;;5090930;28;20752;-62
2023/08/31 07:36:40;;;;;;;4.97;2.97;;;;;;;;;;5091770;28;20496;-62
2023/08/31 07:39:07;;;;;;;7.65;3.00;;;;;;;;;;5090651;28;20068;-63
2023/08/31 07:41:33;;;;;;;10.38;3.22;;;;;;;;;;5090991;28;20066;-63
2023/08/31 07:43:59;;;;;;;9.00;2.60;;;;;;;;;;5090726;28;20040;-63
2023/08/31 07:46:25;;;;;;;5.95;2.70;;;;;;;;;;5090633;28;20493;-63
2023/08/31 07:48:51;;;;;;;12.07;2.83;;;;;;;;;;5090155;28;20051;-63
2023/08/31 07:51:17;;;;;;;5.85;2.30;;;;;;;;;;5079531;28;20040;-62
2023/08/31 07:53:43;;;;;;;6.43;1.90;;;;;;;;;;5090809;28;20105;-63
2023/08/31 07:56:09;;;;;;;8.77;2.08;;;;;;;;;;5090496;28;20067;-62
2023/08/31 07:58:35;;;;;;;5.78;1.85;;;;;;;;;;5085480;28;20369;-61
2023/08/31 08:01:01;;;;;;;6.15;1.45;;;;;;;;;;5081321;28;20136;-60
2023/08/31 08:03:27;;;;;;;3.20;1.65;;;;;;;;;;5087811;28;20123;-61
2023/08/31 08:05:53;;;;;;;7.25;1.67;;;;;;;;;;5091015;28;20097;-63
2023/08/31 08:08:19;;;;;;;8.35;2.17;;;;;;;;;;5089475;28;20101;-61
2023/08/31 08:10:46;;;;;;;4.93;1.60;;;;;;;;;;5090166;28;20513;-61
2023/08/31 08:13:12;;;;;;;8.27;1.90;;;;;;;;;;5087541;28;20437;-61
2023/08/31 08:15:38;;;;;;;5.10;2.00;;;;;;;;;;5090073;28;20539;-61
2023/08/31 08:18:04;;;;;;;4.65;1.80;;;;;;;;;;5090459;28;20040;-62
2023/08/31 08:20:32;;;;;;;8.77;2.45;;;;;;;;;;5090552;28;20051;-61
2023/08/31 08:22:58;;;;;;;8.38;1.90;;;;;;;;;;5089445;28;20038;-61
2023/08/31 08:25:24;;;;;;;4.88;1.88;;;;;;;;;;5087127;28;20134;-62
2023/08/31 08:27:50;;;;;;;6.53;1.55;;;;;;;;;;5078363;28;20526;-61
2023/08/31 08:30:18;;;;;;;4.43;1.20;;;;;;;;;;5089145;28;20143;-62
2023/08/31 08:32:44;;;;;;;3.88;1.13;;;;;;;;;;5090442;28;20087;-62
2023/08/31 08:35:10;;;;;;;5.60;1.10;;;;;;;;;;5089552;28;20478;-61
2023/08/31 08:37:36;;;;;;;4.07;1.13;;;;;;;;;;5090341;28;20036;-62
2023/08/31 08:40:03;;;;;;;2.13;0.82;;;;;;;;;;5089459;28;20047;-61
2023/08/31 08:42:33;;;;;;;3.80;0.80;;;;;;;;;;5091064;28;20683;-62
2023/08/31 08:45:00;;;;;;;5.28;0.90;;;;;;;;;;5086022;28;20071;-63
2023/08/31 08:47:27;;;;;;;1.75;0.77;;;;;;;;;;5077220;28;20650;-61
2023/08/31 08:49:57;;;;;;;1.83;0.60;;;;;;;;;;5089531;28;20123;-62
2023/08/31 08:52:23;;;;;;;4.07;0.88;;;;;;;;;;5093206;28;20043;-61
2023/08/31 08:54:50;;;;;;;3.67;0.73;;;;;;;;;;5094328;28;20043;-62
2023/08/31 08:57:16;;;;;;;2.38;0.60;;;;;;;;;;5093899;28;20386;-62
2023/08/31 08:59:42;;;;;;;2.45;0.60;;;;;;;;;;5090516;28;20044;-62
2023/08/31 09:02:10;;;;;;;3.70;0.93;;;;;;;;;;5091046;28;20040;-62
2023/08/31 09:04:36;;;;;;;1.92;0.57;;;;;;;;;;5094226;28;20044;-61
2023/08/31 09:07:03;;;;;;;1.48;0.57;;;;;;;;;;5093268;28;20126;-62
2023/08/31 09:09:29;;;;;;;1.58;0.70;;;;;;;;;;5093334;28;20379;-61
2023/08/31 09:11:58;;;;;;;3.17;0.70;;;;;;;;;;5093603;28;20043;-62
2023/08/31 09:14:24;;;;;;;2.85;0.90;;;;;;;;;;5092718;28;20435;-62
2023/08/31 09:16:51;;;;;;;5.53;0.77;;;;;;;;;;5093137;28;20117;-62
2023/08/31 09:19:27;;;;;;;9.18;1.30;;;;;;;;;;5092659;28;20127;-62
2023/08/31 09:21:56;;;;;;;4.00;1.02;;;;;;;;;;5083564;28;20051;-61
2023/08/31 09:24:23;;;;;;;4.05;1.10;;;;;;;;;;5093673;28;20833;-61
2023/08/31 09:26:52;;;;;;;2.55;0.90;;;;;;;;;;5090342;28;20044;-62
2023/08/31 09:29:18;;;;;;;3.67;0.68;;;;;;;;;;5091421;28;20114;-62
2023/08/31 09:31:45;;;;;;;3.47;1.10;;;;;;;;;;5093012;28;20611;-62
2023/08/31 09:34:11;;;;;;;5.50;1.20;;;;;;;;;;5093201;28;20036;-61
2023/08/31 09:36:38;;;;;;;3.05;0.80;;;;;;;;;;5093044;28;20047;-61
2023/08/31 09:39:04;;;;;;;2.75;0.80;;;;;;;;;;5093145;28;20032;-61
2023/08/31 09:41:30;;;;;;;3.55;1.00;;;;;;;;;;5092752;28;20055;-63
2023/08/31 09:43:56;;;;;;;3.08;1.02;;;;;;;;;;5092807;28;20032;-62
2023/08/31 09:46:23;;;;;;;2.67;0.90;;;;;;;;;;5093306;28;20044;-63
2023/08/31 09:48:49;;;;;;;2.08;0.88;;;;;;;;;;5091849;28;20039;-62
2023/08/31 09:51:22;;;;;;;3.45;0.90;;;;;;;;;;5090495;28;20123;-62
2023/08/31 09:53:49;;;;;;;1.45;0.60;;;;;;;;;;5092007;28;20141;-62
2023/08/31 09:56:21;;;;;;;1.77;0.80;;;;;;;;;;5091338;28;20044;-62
2023/08/31 09:58:48;;;;;;;1.55;0.50;;;;;;;;;;5087455;28;20127;-62
2023/08/31 10:01:14;;;;;;;3.85;0.60;;;;;;;;;;5092422;28;20048;-61
2023/08/31 10:03:40;;;;;;;1.73;0.73;;;;;;;;;;5089892;28;20044;-62
2023/08/31 10:06:06;;;;;;;1.60;0.60;;;;;;;;;;5091891;28;20043;-63
2023/08/31 10:08:33;;;;;;;2.45;0.88;;;;;;;;;;5092863;28;20494;-62
2023/08/31 10:11:01;;;;;;;2.42;0.50;;;;;;;;;;5092197;28;20393;-61
2023/08/31 10:13:27;;;;;;;2.83;0.50;;;;;;;;;;5091802;28;20048;-61
2023/08/31 10:15:53;;;;;;;2.47;0.50;;;;;;;;;;5092996;28;20032;-63
2023/08/31 10:18:19;;;;;;;2.17;0.52;;;;;;;;;;5091932;28;20436;-62
2023/08/31 10:20:46;;;;;;;3.53;0.65;;;;;;;;;;5077676;28;20032;-62
2023/08/31 10:23:13;;;;;;;1.67;0.75;;;;;;;;;;5092645;28;20082;-61
2023/08/31 10:25:59;;;;;;;1.48;0.60;;;;;;;;;;5089667;28;20067;-62
2023/08/31 10:28:25;;;;;;;3.05;0.73;;;;;;;;;;5091535;28;20066;-61
2023/08/31 10:31:03;;;;;;;1.75;0.73;;;;;;;;;;5092207;28;20123;-62
2023/08/31 10:33:31;;;;;;;2.90;0.75;;;;;;;;;;5091765;28;20096;-62
2023/08/31 10:35:57;;;;;;;2.20;0.88;;;;;;;;;;5092174;28;20513;-62
2023/08/31 10:38:25;;;;;;;2.70;0.70;;;;;;;;;;5091908;28;20036;-62
2023/08/31 10:41:18;;;;;;;4.05;0.95;;;;;;;;;;5092162;28;20044;-62
2023/08/31 10:43:57;;;;;;;2.97;0.82;;;;;;;;;;5092301;28;20628;-62
2023/08/31 10:46:31;;;;;;;1.50;0.70;;;;;;;;;;5091905;28;20056;-62
2023/08/31 10:49:00;;;;;;;2.30;0.50;;;;;;;;;;5089667;28;20048;-63
2023/08/31 10:51:31;;;;;;;2.67;0.63;;;;;;;;;;5070117;28;20106;-62
2023/08/31 10:54:07;;;;;;;2.78;0.50;;;;;;;;;;5084767;28;20040;-62
2023/08/31 10:56:33;;;;;;;3.20;0.50;;;;;;;;;;5092135;28;20139;-62
2023/08/31 10:59:00;;;;;;;2.20;0.60;;;;;;;;;;5092038;28;20066;-62
2023/08/31 11:01:44;;;;;;;2.00;0.40;;;;;;;;;;5091837;28;20540;-62
2023/08/31 11:04:11;;;;;;;2.08;0.40;;;;;;;;;;5092017;28;20044;-61
2023/08/31 11:06:37;;;;;;;2.30;0.40;;;;;;;;;;5091546;28;20498;-62
2023/08/31 11:09:03;;;;;;;2.20;0.60;;;;;;;;;;5091802;28;20036;-63
2023/08/31 11:11:37;;;;;;;3.42;0.63;;;;;;;;;;5091947;28;20044;-61
2023/08/31 11:14:03;;;;;;;3.03;0.50;;;;;;;;;;5091283;28;20035;-61
2023/08/31 11:16:31;;;;;;;2.30;0.90;;;;;;;;;;5085984;28;20115;-61
2023/08/31 11:18:57;;;;;;;4.30;0.70;;;;;;;;;;5091591;28;20039;-61
2023/08/31 11:21:23;;;;;;;3.05;0.93;;;;;;;;;;5091155;28;20474;-61
2023/08/31 11:23:49;;;;;;;2.38;0.93;;;;;;;;;;5090403;28;20081;-62
2023/08/31 11:26:15;;;;;;;1.95;0.50;;;;;;;;;;5080540;28;20075;-62
2023/08/31 11:28:46;;;;;;;3.10;0.80;;;;;;;;;;5069673;28;20131;-62
2023/08/31 11:31:12;;;;;;;4.13;0.60;;;;;;;;;;5091495;28;20534;-62
2023/08/31 11:33:38;;;;;;;3.45;0.60;;;;;;;;;;5091332;28;20036;-62
2023/08/31 11:36:04;;;;;;;1.38;0.57;;;;;;;;;;5091112;28;20040;-62
2023/08/31 11:38:30;;;;;;;3.30;0.70;;;;;;;;;;5091291;28;20500;-62
2023/08/31 11:40:57;;;;;;;2.80;0.57;;;;;;;;;;5089208;28;20056;-62
2023/08/31 11:43:23;;;;;;;2.67;0.70;;;;;;;;;;5089448;28;20055;-62
2023/08/31 11:45:50;;;;;;;6.03;0.77;;;;;;;;;;5090351;28;20178;-62
2023/08/31 11:48:16;;;;;;;4.15;0.80;;;;;;;;;;5091304;28;20177;-62
2023/08/31 11:50:42;;;;;;;4.40;1.17;;;;;;;;;;5087452;28;20538;-62
2023/08/31 11:53:09;;;;;;;1.75;0.60;;;;;;;;;;5090542;28;20036;-63
2023/08/31 11:55:35;;;;;;;3.83;0.80;;;;;;;;;;5088345;28;20119;-62
2023/08/31 11:58:01;;;;;;;3.72;0.65;;;;;;;;;;5090001;28;20036;-63
2023/08/31 12:00:27;;;;;;;3.40;0.77;;;;;;;;;;5087931;28;20106;-62
2023/08/31 12:03:00;;;;;;;2.92;0.98;;;;;;;;;;5074596;28;20041;-62
2023/08/31 12:05:27;;;;;;;5.00;0.93;;;;;;;;;;5069156;28;20123;-65
2023/08/31 12:07:54;;;;;;;1.80;0.40;;;;;;;;;;5069967;28;20045;-65
2023/08/31 12:10:20;;;;;;;4.65;1.10;;;;;;;;;;5083343;28;20051;-65
2023/08/31 12:12:46;;;;;;;4.60;0.98;;;;;;;;;;5090418;28;20502;-65
2023/08/31 12:15:12;;;;;;;4.65;0.80;;;;;;;;;;5090025;28;20082;-65
2023/08/31 12:17:50;;;;;;;3.67;0.90;;;;;;;;;;5088461;28;20048;-65
2023/08/31 12:20:16;;;;;;;4.63;0.75;;;;;;;;;;5093026;28;20066;-64
2023/08/31 12:22:42;;;;;;;3.78;1.08;;;;;;;;;;5094815;28;20039;-63
2023/08/31 12:25:09;;;;;;;5.53;0.98;;;;;;;;;;5094018;28;20123;-64
2023/08/31 12:27:35;;;;;;;4.25;0.77;;;;;;;;;;5092374;28;20482;-64
2023/08/31 12:30:01;;;;;;;2.85;0.85;;;;;;;;;;5094341;28;20071;-65
2023/08/31 12:32:27;;;;;;;4.45;0.98;;;;;;;;;;5088297;28;20128;-65
2023/08/31 12:34:53;;;;;;;3.03;0.70;;;;;;;;;;5085277;28;20051;-64
2023/08/31 12:37:19;;;;;;;3.00;0.75;;;;;;;;;;5094477;28;20067;-65
2023/08/31 12:39:45;;;;;;;3.53;1.20;;;;;;;;;;5093101;28;20035;-66
2023/08/31 12:42:11;;;;;;;3.40;0.82;;;;;;;;;;5092448;28;20101;-64
2023/08/31 12:44:37;;;;;;;3.60;0.70;;;;;;;;;;5093966;28;20048;-66
2023/08/31 12:47:04;;;;;;;5.75;0.70;;;;;;;;;;5085176;28;20505;-64
2023/08/31 12:49:30;;;;;;;3.88;0.75;;;;;;;;;;5086756;28;20455;-64
2023/08/31 12:51:56;;;;;;;1.70;0.60;;;;;;;;;;5091254;28;20119;-64
2023/08/31 12:54:22;;;;;;;4.03;1.08;;;;;;;;;;5075319;28;20075;-64
2023/08/31 12:56:48;;;;;;;2.63;0.80;;;;;;;;;;5075193;28;20052;-65
2023/08/31 12:59:14;;;;;;;2.35;0.80;;;;;;;;;;5093364;28;20070;-65
2023/08/31 13:01:41;;;;;;;1.65;0.80;;;;;;;;;;5077379;28;20463;-65
2023/08/31 13:04:07;;;;;;;3.30;0.50;;;;;;;;;;5092216;28;20040;-64
2023/08/31 13:06:33;;;;;;;3.53;1.20;;;;;;;;;;5093753;28;20044;-65
2023/08/31 13:08:59;;;;;;;3.65;1.00;;;;;;;;;;5090549;28;20624;-65
2023/08/31 13:11:25;;;;;;;3.45;0.98;;;;;;;;;;5092968;28;20055;-65
2023/08/31 13:13:51;;;;;;;2.95;0.98;;;;;;;;;;5076363;28;20403;-65
2023/08/31 13:16:18;;;;;;;4.90;0.85;;;;;;;;;;5093034;28;20399;-65
2023/08/31 13:18:44;;;;;;;6.20;1.27;;;;;;;;;;5092916;28;20040;-64
2023/08/31 13:21:10;;;;;;;5.72;1.33;;;;;;;;;;5093536;28;20526;-65
2023/08/31 13:23:36;;;;;;;2.53;0.70;;;;;;;;;;5092997;28;20052;-64
2023/08/31 13:26:02;;;;;;;9.80;1.10;;;;;;;;;;5092823;28;20082;-65
2023/08/31 13:28:28;;;;;;;3.28;1.00;;;;;;;;;;5091096;28;20114;-65
2023/08/31 13:30:57;;;;;;;3.03;0.90;;;;;;;;;;5089497;28;20044;-65
2023/08/31 13:33:24;;;;;;;3.58;0.98;;;;;;;;;;5092617;28;20089;-65
2023/08/31 13:35:50;;;;;;;3.30;0.80;;;;;;;;;;5092802;28;20028;-65
2023/08/31 13:38:16;;;;;;;3.50;0.80;;;;;;;;;;5091275;28;20047;-66
2023/08/31 13:40:42;;;;;;;4.03;0.82;;;;;;;;;;5092524;28;20040;-65
2023/08/31 13:43:08;;;;;;;9.15;1.17;;;;;;;;;;5092939;28;20047;-64
2023/08/31 13:45:34;;;;;;;2.67;0.60;;;;;;;;;;5092117;28;20433;-64
2023/08/31 13:48:00;;;;;;;2.10;0.80;;;;;;;;;;5092088;28;20071;-66
2023/08/31 13:50:27;;;;;;;3.33;0.90;;;;;;;;;;5076387;28;20044;-64
2023/08/31 13:52:53;;;;;;;3.13;0.88;;;;;;;;;;5093259;28;20516;-63
2023/08/31 13:55:20;;;;;;;1.75;0.70;;;;;;;;;;5092739;28;20044;-66
2023/08/31 13:57:46;;;;;;;7.00;1.20;;;;;;;;;;5088913;28;20040;-66
2023/08/31 14:00:12;;;;;;;3.03;0.73;;;;;;;;;;5092605;28;20511;-65
2023/08/31 14:02:38;;;;;;;3.97;0.80;;;;;;;;;;5092340;28;20125;-65
2023/08/31 14:05:09;;;;;;;2.92;0.90;;;;;;;;;;5088791;28;20676;-66
2023/08/31 14:07:36;;;;;;;3.28;1.30;;;;;;;;;;5090963;28;20059;-65
2023/08/31 14:10:05;;;;;;;2.72;0.73;;;;;;;;;;5092292;28;20039;-64
2023/08/31 14:12:31;;;;;;;3.47;0.80;;;;;;;;;;5092394;28;20052;-65
2023/08/31 14:14:57;;;;;;;4.97;1.00;;;;;;;;;;5092062;28;20039;-64
2023/08/31 14:17:24;;;;;;;3.10;0.90;;;;;;;;;;5092305;28;20039;-63
2023/08/31 14:19:50;;;;;;;3.75;0.80;;;;;;;;;;5092066;28;20115;-65
2023/08/31 14:22:16;;;;;;;2.65;1.25;;;;;;;;;;5092382;28;20040;-64
2023/08/31 14:24:42;;;;;;;1.23;0.60;;;;;;;;;;5092142;28;20098;-64
2023/08/31 14:27:08;;;;;;;2.53;0.82;;;;;;;;;;5082754;28;20046;-64
2023/08/31 14:29:35;;;;;;;3.30;0.88;;;;;;;;;;5092512;28;20056;-64
2023/08/31 14:32:01;;;;;;;7.05;0.88;;;;;;;;;;5091240;28;20638;-64
2023/08/31 14:34:27;;;;;;;1.83;0.70;;;;;;;;;;5083328;28;20037;-63
2023/08/31 14:36:57;;;;;;;5.72;1.02;;;;;;;;;;5088407;28;20122;-67
2023/08/31 14:39:28;;;;;;;7.13;1.20;;;;;;;;;;5090287;28;20048;-64
2023/08/31 14:41:54;;;;;;;6.15;1.20;;;;;;;;;;5091668;28;20115;-65